sensor_id;sensor_type;location;lat;lon;timestamp;pressure;altitude;pressure_sealevel;temperature;humidity
19761;BME280;10039;42.632;23.408;2022-10-31T00:02:07;95465.34;;;13.90;58.63
19761;BME280;10039;42.632;23.408;2022-10-31T00:04:34;95441.25;;;13.54;58.72
19761;BME280;10039;42.632;23.408;2022-10-31T00:06:59;95437.66;;;13.45;59.19
19761;BME280;10039;42.632;23.408;2022-10-31T00:09:25;95406.19;;;13.14;59.44
19761;BME280;10039;42.632;23.408;2022-10-31T00:11:51;95462.69;;;13.39;59.26
19761;BME280;10039;42.632;23.408;2022-10-31T00:14:17;95451.25;;;13.19;59.92
19761;BME280;10039;42.632;23.408;2022-10-31T00:16:43;95445.50;;;13.01;60.16
19761;BME280;10039;42.632;23.408;2022-10-31T00:19:08;95459.94;;;13.07;60.26
19761;BME280;10039;42.632;23.408;2022-10-31T00:21:34;95453.59;;;13.17;59.63
19761;BME280;10039;42.632;23.408;2022-10-31T00:24:00;95450.44;;;13.22;59.79
19761;BME280;10039;42.632;23.408;2022-10-31T00:26:27;95445.72;;;13.26;59.73
19761;BME280;10039;42.632;23.408;2022-10-31T00:28:53;95461.44;;;13.43;59.34
19761;BME280;10039;42.632;23.408;2022-10-31T00:31:19;95421.47;;;12.97;59.53
19761;BME280;10039;42.632;23.408;2022-10-31T00:33:45;95474.22;;;13.20;60.05
19761;BME280;10039;42.632;23.408;2022-10-31T00:36:13;95451.16;;;13.06;60.53
19761;BME280;10039;42.632;23.408;2022-10-31T00:38:40;95442.34;;;13.06;59.55
19761;BME280;10039;42.632;23.408;2022-10-31T00:41:06;95435.81;;;12.87;60.33
19761;BME280;10039;42.632;23.408;2022-10-31T00:43:32;95450.16;;;12.97;59.98
19761;BME280;10039;42.632;23.408;2022-10-31T00:45:58;95462.94;;;13.09;60.24
19761;BME280;10039;42.632;23.408;2022-10-31T00:48:24;95443.78;;;12.91;59.94
19761;BME280;10039;42.632;23.408;2022-10-31T00:50:50;95440.28;;;12.94;60.19
19761;BME280;10039;42.632;23.408;2022-10-31T00:53:15;95464.31;;;13.17;59.85
19761;BME280;10039;42.632;23.408;2022-10-31T00:55:44;95442.28;;;12.90;59.76
19761;BME280;10039;42.632;23.408;2022-10-31T00:58:09;95456.91;;;13.05;60.53
19761;BME280;10039;42.632;23.408;2022-10-31T01:00:35;95461.78;;;12.90;60.44
19761;BME280;10039;42.632;23.408;2022-10-31T01:03:00;95425.66;;;12.59;60.78
19761;BME280;10039;42.632;23.408;2022-10-31T01:05:26;95443.16;;;12.64;61.41
19761;BME280;10039;42.632;23.408;2022-10-31T01:07:52;95467.81;;;12.75;61.17
19761;BME280;10039;42.632;23.408;2022-10-31T01:10:18;95470.00;;;12.80;60.79
19761;BME280;10039;42.632;23.408;2022-10-31T01:12:46;95444.13;;;12.73;60.48
19761;BME280;10039;42.632;23.408;2022-10-31T01:15:14;95442.66;;;12.88;60.66
19761;BME280;10039;42.632;23.408;2022-10-31T01:17:40;95420.28;;;12.79;59.95
19761;BME280;10039;42.632;23.408;2022-10-31T01:20:07;95462.41;;;12.98;60.26
19761;BME280;10039;42.632;23.408;2022-10-31T01:22:34;95465.53;;;13.12;60.40
19761;BME280;10039;42.632;23.408;2022-10-31T01:25:00;95459.44;;;13.12;60.02
19761;BME280;10039;42.632;23.408;2022-10-31T01:27:25;95473.22;;;13.30;59.93
19761;BME280;10039;42.632;23.408;2022-10-31T01:29:51;95458.53;;;13.18;59.44
19761;BME280;10039;42.632;23.408;2022-10-31T01:32:17;95465.00;;;13.21;59.50
19761;BME280;10039;42.632;23.408;2022-10-31T01:34:43;95457.44;;;13.16;59.25
19761;BME280;10039;42.632;23.408;2022-10-31T01:37:09;95487.31;;;13.14;60.55
19761;BME280;10039;42.632;23.408;2022-10-31T01:39:35;95447.28;;;12.88;60.10
19761;BME280;10039;42.632;23.408;2022-10-31T01:42:00;95468.97;;;12.74;61.19
19761;BME280;10039;42.632;23.408;2022-10-31T01:46:56;95462.34;;;12.59;61.75
19761;BME280;10039;42.632;23.408;2022-10-31T01:49:31;95490.97;;;12.85;61.13
19761;BME280;10039;42.632;23.408;2022-10-31T01:52:06;95460.59;;;12.72;61.50
19761;BME280;10039;42.632;23.408;2022-10-31T01:54:39;95480.53;;;12.90;61.06
19761;BME280;10039;42.632;23.408;2022-10-31T01:57:06;95486.31;;;12.89;61.69
19761;BME280;10039;42.632;23.408;2022-10-31T01:59:37;95487.25;;;12.79;61.57
19761;BME280;10039;42.632;23.408;2022-10-31T02:02:05;95471.31;;;12.72;61.54
19761;BME280;10039;42.632;23.408;2022-10-31T02:04:31;95487.69;;;12.97;61.27
19761;BME280;10039;42.632;23.408;2022-10-31T02:07:04;95493.16;;;13.09;61.44
19761;BME280;10039;42.632;23.408;2022-10-31T02:09:32;95463.69;;;12.90;60.86
19761;BME280;10039;42.632;23.408;2022-10-31T02:11:59;95483.91;;;13.14;60.69
19761;BME280;10039;42.632;23.408;2022-10-31T02:14:27;95452.50;;;12.95;61.33
19761;BME280;10039;42.632;23.408;2022-10-31T02:16:54;95493.38;;;12.99;61.90
19761;BME280;10039;42.632;23.408;2022-10-31T02:41:48;95488.84;;;12.96;61.10
19761;BME280;10039;42.632;23.408;2022-10-31T02:44:33;95510.41;;;13.08;61.60
19761;BME280;10039;42.632;23.408;2022-10-31T02:47:04;95459.44;;;12.73;60.90
19761;BME280;10039;42.632;23.408;2022-10-31T02:51:59;95504.56;;;12.94;61.09
19761;BME280;10039;42.632;23.408;2022-10-31T02:54:26;95507.47;;;13.03;61.04
19761;BME280;10039;42.632;23.408;2022-10-31T02:57:03;95489.28;;;12.94;61.08
19761;BME280;10039;42.632;23.408;2022-10-31T02:59:32;95465.47;;;12.77;60.73
19761;BME280;10039;42.632;23.408;2022-10-31T03:10:40;95515.66;;;13.15;61.48
19761;BME280;10039;42.632;23.408;2022-10-31T03:15:37;95479.66;;;12.97;61.15
19761;BME280;10039;42.632;23.408;2022-10-31T03:18:10;95507.56;;;12.99;61.97
19761;BME280;10039;42.632;23.408;2022-10-31T03:20:47;95478.31;;;12.66;62.15
19761;BME280;10039;42.632;23.408;2022-10-31T03:23:16;95517.16;;;12.97;61.88
19761;BME280;10039;42.632;23.408;2022-10-31T03:25:43;95475.84;;;12.75;61.92
19761;BME280;10039;42.632;23.408;2022-10-31T03:28:12;95508.78;;;12.95;61.20
19761;BME280;10039;42.632;23.408;2022-10-31T03:30:42;95476.41;;;12.86;61.66
19761;BME280;10039;42.632;23.408;2022-10-31T03:33:16;95520.53;;;13.01;61.66
19761;BME280;10039;42.632;23.408;2022-10-31T03:35:45;95536.81;;;12.90;62.32
19761;BME280;10039;42.632;23.408;2022-10-31T03:38:16;95504.34;;;12.65;62.86
19761;BME280;10039;42.632;23.408;2022-10-31T03:40:46;95496.66;;;12.67;62.17
19761;BME280;10039;42.632;23.408;2022-10-31T03:43:26;95531.66;;;12.76;62.77
19761;BME280;10039;42.632;23.408;2022-10-31T03:45:55;95513.34;;;12.75;62.84
19761;BME280;10039;42.632;23.408;2022-10-31T03:48:24;95518.56;;;12.82;62.40
19761;BME280;10039;42.632;23.408;2022-10-31T03:51:11;95511.75;;;12.77;62.77
19761;BME280;10039;42.632;23.408;2022-10-31T03:53:55;95526.00;;;12.94;62.59
19761;BME280;10039;42.632;23.408;2022-10-31T03:59:07;95510.13;;;12.83;62.30
19761;BME280;10039;42.632;23.408;2022-10-31T04:01:37;95551.28;;;12.93;63.30
19761;BME280;10039;42.632;23.408;2022-10-31T04:04:05;95498.97;;;12.65;62.96
19761;BME280;10039;42.632;23.408;2022-10-31T04:06:34;95525.38;;;12.86;62.78
19761;BME280;10039;42.632;23.408;2022-10-31T04:09:03;95525.38;;;12.86;62.68
19761;BME280;10039;42.632;23.408;2022-10-31T04:11:33;95508.56;;;12.86;62.17
19761;BME280;10039;42.632;23.408;2022-10-31T04:14:01;95517.44;;;12.79;62.57
19761;BME280;10039;42.632;23.408;2022-10-31T04:16:28;95529.63;;;12.84;62.54
19761;BME280;10039;42.632;23.408;2022-10-31T04:18:54;95546.03;;;13.09;62.33
19761;BME280;10039;42.632;23.408;2022-10-31T04:21:27;95561.06;;;13.03;62.61
19761;BME280;10039;42.632;23.408;2022-10-31T04:23:56;95523.13;;;12.85;62.21
19761;BME280;10039;42.632;23.408;2022-10-31T04:26:22;95506.47;;;12.74;62.53
19761;BME280;10039;42.632;23.408;2022-10-31T04:28:48;95527.78;;;12.81;62.84
19761;BME280;10039;42.632;23.408;2022-10-31T04:31:14;95549.44;;;12.90;63.12
19761;BME280;10039;42.632;23.408;2022-10-31T04:33:40;95552.88;;;12.90;62.99
19761;BME280;10039;42.632;23.408;2022-10-31T04:36:06;95533.13;;;12.81;62.90
19761;BME280;10039;42.632;23.408;2022-10-31T04:38:32;95532.34;;;12.80;62.59
19761;BME280;10039;42.632;23.408;2022-10-31T04:40:58;95550.78;;;13.01;62.46
19761;BME280;10039;42.632;23.408;2022-10-31T04:43:24;95541.69;;;12.95;62.63
19761;BME280;10039;42.632;23.408;2022-10-31T04:45:49;95532.66;;;12.86;62.32
19761;BME280;10039;42.632;23.408;2022-10-31T04:48:15;95563.97;;;13.12;62.73
19761;BME280;10039;42.632;23.408;2022-10-31T04:50:41;95572.00;;;13.12;62.16
19761;BME280;10039;42.632;23.408;2022-10-31T04:53:07;95547.22;;;12.85;62.66
19761;BME280;10039;42.632;23.408;2022-10-31T04:55:33;95558.97;;;12.91;62.53
19761;BME280;10039;42.632;23.408;2022-10-31T04:57:59;95579.28;;;13.11;62.02
19761;BME280;10039;42.632;23.408;2022-10-31T05:00:25;95555.94;;;13.12;61.69
19761;BME280;10039;42.632;23.408;2022-10-31T05:02:52;95570.03;;;13.35;62.30
19761;BME280;10039;42.632;23.408;2022-10-31T05:05:21;95580.53;;;13.26;62.78
19761;BME280;10039;42.632;23.408;2022-10-31T05:07:48;95567.81;;;13.11;62.72
19761;BME280;10039;42.632;23.408;2022-10-31T05:10:21;95539.22;;;13.04;62.91
19761;BME280;10039;42.632;23.408;2022-10-31T05:12:49;95582.38;;;13.29;62.44
19761;BME280;10039;42.632;23.408;2022-10-31T05:15:15;95579.63;;;13.33;62.01
19761;BME280;10039;42.632;23.408;2022-10-31T05:17:41;95563.97;;;13.12;62.79
19761;BME280;10039;42.632;23.408;2022-10-31T05:20:07;95596.63;;;13.26;62.94
19761;BME280;10039;42.632;23.408;2022-10-31T05:22:33;95590.69;;;13.15;62.32
19761;BME280;10039;42.632;23.408;2022-10-31T05:24:59;95565.59;;;13.06;62.06
19761;BME280;10039;42.632;23.408;2022-10-31T05:27:24;95604.91;;;13.32;62.20
19761;BME280;10039;42.632;23.408;2022-10-31T05:29:50;95573.56;;;13.29;62.21
19761;BME280;10039;42.632;23.408;2022-10-31T05:32:16;95601.69;;;13.40;61.96
19761;BME280;10039;42.632;23.408;2022-10-31T05:34:42;95593.03;;;13.33;61.78
19761;BME280;10039;42.632;23.408;2022-10-31T05:37:08;95605.19;;;13.18;62.92
19761;BME280;10039;42.632;23.408;2022-10-31T05:39:34;95596.00;;;13.19;62.81
19761;BME280;10039;42.632;23.408;2022-10-31T05:42:00;95612.69;;;13.26;62.19
19761;BME280;10039;42.632;23.408;2022-10-31T05:44:26;95616.13;;;13.27;62.38
19761;BME280;10039;42.632;23.408;2022-10-31T05:46:51;95616.47;;;13.29;61.68
19761;BME280;10039;42.632;23.408;2022-10-31T05:49:17;95579.44;;;13.04;61.70
19761;BME280;10039;42.632;23.408;2022-10-31T05:51:43;95568.47;;;12.95;61.84
19761;BME280;10039;42.632;23.408;2022-10-31T05:54:09;95592.66;;;13.11;61.83
19761;BME280;10039;42.632;23.408;2022-10-31T05:56:35;95580.47;;;12.87;62.10
19761;BME280;10039;42.632;23.408;2022-10-31T05:59:01;95628.81;;;13.23;61.81
19761;BME280;10039;42.632;23.408;2022-10-31T06:01:27;95595.19;;;12.99;62.21
19761;BME280;10039;42.632;23.408;2022-10-31T06:03:52;95600.38;;;13.09;61.89
19761;BME280;10039;42.632;23.408;2022-10-31T06:06:18;95612.44;;;12.98;62.17
19761;BME280;10039;42.632;23.408;2022-10-31T06:08:44;95629.22;;;13.02;63.08
19761;BME280;10039;42.632;23.408;2022-10-31T06:11:09;95633.75;;;13.05;63.03
19761;BME280;10039;42.632;23.408;2022-10-31T06:13:35;95616.97;;;13.01;62.33
19761;BME280;10039;42.632;23.408;2022-10-31T06:16:01;95592.28;;;12.90;62.30
19761;BME280;10039;42.632;23.408;2022-10-31T06:18:27;95627.00;;;13.20;62.30
19761;BME280;10039;42.632;23.408;2022-10-31T06:20:53;95603.34;;;13.15;62.05
19761;BME280;10039;42.632;23.408;2022-10-31T06:23:19;95626.44;;;13.28;61.64
19761;BME280;10039;42.632;23.408;2022-10-31T06:25:49;95652.81;;;13.52;61.72
19761;BME280;10039;42.632;23.408;2022-10-31T06:28:15;95663.03;;;13.57;62.02
19761;BME280;10039;42.632;23.408;2022-10-31T06:30:40;95644.59;;;13.59;62.16
19761;BME280;10039;42.632;23.408;2022-10-31T06:33:06;95620.75;;;13.45;61.89
19761;BME280;10039;42.632;23.408;2022-10-31T06:35:32;95634.34;;;13.54;62.01
19761;BME280;10039;42.632;23.408;2022-10-31T06:37:59;95654.50;;;13.82;62.32
19761;BME280;10039;42.632;23.408;2022-10-31T06:40:24;95669.66;;;14.08;61.99
19761;BME280;10039;42.632;23.408;2022-10-31T06:43:06;95629.91;;;14.03;61.20
19761;BME280;10039;42.632;23.408;2022-10-31T06:45:31;95669.75;;;14.40;60.79
19761;BME280;10039;42.632;23.408;2022-10-31T06:47:57;95659.03;;;14.40;60.74
19761;BME280;10039;42.632;23.408;2022-10-31T06:50:23;95647.03;;;14.44;60.67
19761;BME280;10039;42.632;23.408;2022-10-31T06:52:53;95644.78;;;14.58;60.63
19761;BME280;10039;42.632;23.408;2022-10-31T06:55:20;95628.34;;;14.57;59.68
19761;BME280;10039;42.632;23.408;2022-10-31T07:00:20;95628.00;;;14.86;59.36
19761;BME280;10039;42.632;23.408;2022-10-31T07:02:56;95665.59;;;15.18;59.18
19761;BME280;10039;42.632;23.408;2022-10-31T07:05:27;95672.06;;;15.37;58.88
19761;BME280;10039;42.632;23.408;2022-10-31T07:07:56;95664.81;;;15.34;57.84
19761;BME280;10039;42.632;23.408;2022-10-31T07:10:23;95663.81;;;15.44;58.70
19761;BME280;10039;42.632;23.408;2022-10-31T07:12:56;95612.97;;;15.17;58.80
19761;BME280;10039;42.632;23.408;2022-10-31T07:15:23;95641.75;;;15.49;58.50
19761;BME280;10039;42.632;23.408;2022-10-31T07:17:49;95652.28;;;15.72;58.40
19761;BME280;10039;42.632;23.408;2022-10-31T07:20:15;95618.09;;;15.56;57.54
19761;BME280;10039;42.632;23.408;2022-10-31T07:22:41;95636.56;;;15.82;57.81
19761;BME280;10039;42.632;23.408;2022-10-31T07:25:07;95631.50;;;15.84;57.92
19761;BME280;10039;42.632;23.408;2022-10-31T07:27:41;95640.72;;;16.12;57.17
19761;BME280;10039;42.632;23.408;2022-10-31T07:30:09;95619.06;;;16.15;57.72
19761;BME280;10039;42.632;23.408;2022-10-31T07:32:40;95631.94;;;16.49;57.29
19761;BME280;10039;42.632;23.408;2022-10-31T07:35:10;95642.06;;;16.57;57.81
19761;BME280;10039;42.632;23.408;2022-10-31T07:37:36;95628.69;;;16.66;57.24
19761;BME280;10039;42.632;23.408;2022-10-31T07:40:03;95603.91;;;16.46;56.62
19761;BME280;10039;42.632;23.408;2022-10-31T07:42:34;95622.13;;;16.55;55.96
19761;BME280;10039;42.632;23.408;2022-10-31T07:44:59;95630.91;;;16.80;56.46
19761;BME280;10039;42.632;23.408;2022-10-31T07:47:25;95626.38;;;16.77;55.50
19761;BME280;10039;42.632;23.408;2022-10-31T07:49:51;95647.63;;;17.00;55.62
19761;BME280;10039;42.632;23.408;2022-10-31T07:52:17;95612.38;;;16.82;55.92
19761;BME280;10039;42.632;23.408;2022-10-31T07:54:43;95600.88;;;16.69;55.00
19761;BME280;10039;42.632;23.408;2022-10-31T07:57:08;95636.53;;;16.86;55.59
19761;BME280;10039;42.632;23.408;2022-10-31T07:59:34;95646.50;;;17.10;56.01
19761;BME280;10039;42.632;23.408;2022-10-31T08:02:00;95645.41;;;17.20;55.36
19761;BME280;10039;42.632;23.408;2022-10-31T08:04:26;95644.06;;;17.37;54.88
19761;BME280;10039;42.632;23.408;2022-10-31T08:06:52;95648.25;;;17.50;54.53
19761;BME280;10039;42.632;23.408;2022-10-31T08:09:18;95648.75;;;17.58;53.93
19761;BME280;10039;42.632;23.408;2022-10-31T08:11:43;95619.53;;;17.44;53.62
19761;BME280;10039;42.632;23.408;2022-10-31T08:14:09;95636.38;;;17.48;54.13
19761;BME280;10039;42.632;23.408;2022-10-31T08:16:35;95631.59;;;17.52;54.05
19761;BME280;10039;42.632;23.408;2022-10-31T08:19:01;95634.53;;;17.45;54.85
19761;BME280;10039;42.632;23.408;2022-10-31T08:21:27;95628.97;;;17.27;54.81
19761;BME280;10039;42.632;23.408;2022-10-31T08:23:53;95644.50;;;17.35;54.25
19761;BME280;10039;42.632;23.408;2022-10-31T08:26:18;95641.69;;;17.39;55.27
19761;BME280;10039;42.632;23.408;2022-10-31T08:28:44;95634.34;;;17.39;54.96
19761;BME280;10039;42.632;23.408;2022-10-31T08:31:10;95620.13;;;17.26;54.57
19761;BME280;10039;42.632;23.408;2022-10-31T08:33:35;95617.53;;;17.23;55.64
19761;BME280;10039;42.632;23.408;2022-10-31T08:36:01;95603.16;;;17.38;55.11
19761;BME280;10039;42.632;23.408;2022-10-31T08:38:27;95636.50;;;17.66;55.21
19761;BME280;10039;42.632;23.408;2022-10-31T08:40:53;95632.56;;;17.58;53.98
19761;BME280;10039;42.632;23.408;2022-10-31T08:43:18;95628.66;;;17.59;54.67
19761;BME280;10039;42.632;23.408;2022-10-31T08:45:48;95632.03;;;17.72;55.32
19761;BME280;10039;42.632;23.408;2022-10-31T08:48:15;95597.44;;;17.36;54.78
19761;BME280;10039;42.632;23.408;2022-10-31T08:50:42;95635.59;;;17.69;54.60
19761;BME280;10039;42.632;23.408;2022-10-31T08:53:11;95604.44;;;17.68;54.56
19761;BME280;10039;42.632;23.408;2022-10-31T08:55:38;95633.34;;;17.89;54.11
19761;BME280;10039;42.632;23.408;2022-10-31T08:58:05;95627.38;;;17.94;54.12
19761;BME280;10039;42.632;23.408;2022-10-31T09:00:32;95630.13;;;18.02;53.74
19761;BME280;10039;42.632;23.408;2022-10-31T09:03:03;95595.38;;;17.83;53.76
19761;BME280;10039;42.632;23.408;2022-10-31T09:05:29;95624.72;;;18.02;53.73
19761;BME280;10039;42.632;23.408;2022-10-31T09:07:58;95623.84;;;18.05;53.29
19761;BME280;10039;42.632;23.408;2022-10-31T09:10:25;95613.59;;;18.00;53.62
19761;BME280;10039;42.632;23.408;2022-10-31T09:12:59;95615.63;;;18.09;53.08
19761;BME280;10039;42.632;23.408;2022-10-31T09:15:25;95610.56;;;17.90;53.56
19761;BME280;10039;42.632;23.408;2022-10-31T09:17:51;95590.72;;;17.84;54.06
19761;BME280;10039;42.632;23.408;2022-10-31T09:20:18;95605.16;;;17.90;54.03
19761;BME280;10039;42.632;23.408;2022-10-31T09:22:44;95605.94;;;17.99;52.76
19761;BME280;10039;42.632;23.408;2022-10-31T09:25:10;95620.63;;;18.19;53.50
19761;BME280;10039;42.632;23.408;2022-10-31T09:27:35;95615.41;;;18.25;53.30
19761;BME280;10039;42.632;23.408;2022-10-31T09:30:01;95593.69;;;18.07;53.15
19761;BME280;10039;42.632;23.408;2022-10-31T09:32:27;95611.09;;;18.27;52.93
19761;BME280;10039;42.632;23.408;2022-10-31T09:34:53;95609.88;;;18.28;52.92
19761;BME280;10039;42.632;23.408;2022-10-31T09:37:18;95598.69;;;18.17;52.59
19761;BME280;10039;42.632;23.408;2022-10-31T09:39:44;95616.97;;;18.35;52.73
19761;BME280;10039;42.632;23.408;2022-10-31T09:50:33;95596.22;;;18.32;52.39
19761;BME280;10039;42.632;23.408;2022-10-31T09:53:17;95609.06;;;18.49;52.52
19761;BME280;10039;42.632;23.408;2022-10-31T09:55:47;95583.94;;;18.40;52.33
19761;BME280;10039;42.632;23.408;2022-10-31T09:58:20;95600.94;;;18.49;52.59
19761;BME280;10039;42.632;23.408;2022-10-31T10:00:51;95578.41;;;18.43;52.53
19761;BME280;10039;42.632;23.408;2022-10-31T10:03:43;95579.47;;;18.55;52.11
19761;BME280;10039;42.632;23.408;2022-10-31T10:06:17;95586.88;;;18.72;51.82
19761;BME280;10039;42.632;23.408;2022-10-31T10:08:44;95587.06;;;18.78;52.05
19761;BME280;10039;42.632;23.408;2022-10-31T10:25:16;95542.44;;;18.91;51.33
19761;BME280;10039;42.632;23.408;2022-10-31T10:33:17;95543.81;;;19.14;51.03
19761;BME280;10039;42.632;23.408;2022-10-31T10:35:52;95555.56;;;19.28;50.74
19761;BME280;10039;42.632;23.408;2022-10-31T10:38:36;95529.53;;;19.22;50.49
19761;BME280;10039;42.632;23.408;2022-10-31T10:41:10;95556.88;;;19.42;49.77
19761;BME280;10039;42.632;23.408;2022-10-31T10:43:38;95535.69;;;19.31;49.74
19761;BME280;10039;42.632;23.408;2022-10-31T10:57:23;95547.84;;;19.54;48.82
19761;BME280;10039;42.632;23.408;2022-10-31T10:59:53;95534.47;;;19.50;49.19
19761;BME280;10039;42.632;23.408;2022-10-31T11:02:22;95546.19;;;19.56;50.08
19761;BME280;10039;42.632;23.408;2022-10-31T11:04:55;95534.94;;;19.49;48.86
19761;BME280;10039;42.632;23.408;2022-10-31T11:07:22;95533.72;;;19.59;49.34
19761;BME280;10039;42.632;23.408;2022-10-31T11:09:48;95533.38;;;19.66;50.29
19761;BME280;10039;42.632;23.408;2022-10-31T11:12:22;95508.28;;;19.47;49.58
19761;BME280;10039;42.632;23.408;2022-10-31T11:14:55;95529.16;;;19.65;49.92
19761;BME280;10039;42.632;23.408;2022-10-31T11:17:36;95512.50;;;19.57;49.73
19761;BME280;10039;42.632;23.408;2022-10-31T11:22:31;95518.31;;;19.65;48.88
19761;BME280;10039;42.632;23.408;2022-10-31T11:28:02;95483.72;;;19.60;48.54
19761;BME280;10039;42.632;23.408;2022-10-31T11:30:29;95503.09;;;19.76;48.43
19761;BME280;10039;42.632;23.408;2022-10-31T11:32:58;95501.75;;;19.81;48.64
19761;BME280;10039;42.632;23.408;2022-10-31T11:35:24;95479.66;;;19.64;48.55
19761;BME280;10039;42.632;23.408;2022-10-31T11:37:52;95473.47;;;19.73;47.81
19761;BME280;10039;42.632;23.408;2022-10-31T11:40:27;95475.84;;;19.80;47.83
19761;BME280;10039;42.632;23.408;2022-10-31T11:42:56;95476.75;;;19.86;47.44
19761;BME280;10039;42.632;23.408;2022-10-31T11:47:51;95481.19;;;19.98;47.87
19761;BME280;10039;42.632;23.408;2022-10-31T11:50:40;95487.22;;;20.02;48.00
19761;BME280;10039;42.632;23.408;2022-10-31T11:53:14;95468.91;;;19.88;47.16
19761;BME280;10039;42.632;23.408;2022-10-31T11:55:41;95442.75;;;19.76;47.23
19761;BME280;10039;42.632;23.408;2022-10-31T11:58:24;95482.41;;;20.06;47.65
19761;BME280;10039;42.632;23.408;2022-10-31T12:00:53;95474.66;;;20.13;47.52
19761;BME280;10039;42.632;23.408;2022-10-31T12:05:51;95458.63;;;20.01;47.43
19761;BME280;10039;42.632;23.408;2022-10-31T12:08:19;95441.34;;;19.89;48.02
19761;BME280;10039;42.632;23.408;2022-10-31T12:11:03;95483.53;;;20.23;48.42
19761;BME280;10039;42.632;23.408;2022-10-31T12:13:39;95466.38;;;20.17;48.68
19761;BME280;10039;42.632;23.408;2022-10-31T12:16:26;95474.50;;;20.17;47.88
19761;BME280;10039;42.632;23.408;2022-10-31T12:27:17;95476.47;;;20.16;47.57
19761;BME280;10039;42.632;23.408;2022-10-31T12:40:49;95469.72;;;20.58;45.94
19761;BME280;10039;42.632;23.408;2022-10-31T12:46:09;95464.13;;;20.62;45.67
19761;BME280;10039;42.632;23.408;2022-10-31T12:54:19;95464.53;;;20.69;45.75
19761;BME280;10039;42.632;23.408;2022-10-31T12:57:00;95461.47;;;20.76;45.64
19761;BME280;10039;42.632;23.408;2022-10-31T12:59:36;95467.34;;;20.75;46.05
19761;BME280;10039;42.632;23.408;2022-10-31T13:02:13;95449.84;;;20.76;45.36
19761;BME280;10039;42.632;23.408;2022-10-31T13:04:59;95466.47;;;20.92;44.94
19761;BME280;10039;42.632;23.408;2022-10-31T13:07:31;95464.28;;;21.05;45.09
19761;BME280;10039;42.632;23.408;2022-10-31T13:10:14;95455.28;;;21.14;43.83
19761;BME280;10039;42.632;23.408;2022-10-31T13:12:42;95457.72;;;21.12;44.17
19761;BME280;10039;42.632;23.408;2022-10-31T13:15:29;95447.72;;;21.18;43.85
19761;BME280;10039;42.632;23.408;2022-10-31T13:18:04;95445.19;;;21.14;44.03
19761;BME280;10039;42.632;23.408;2022-10-31T13:20:43;95445.75;;;21.18;44.03
19761;BME280;10039;42.632;23.408;2022-10-31T13:25:53;95428.13;;;21.14;43.89
19761;BME280;10039;42.632;23.408;2022-10-31T13:28:54;95464.78;;;21.47;43.76
19761;BME280;10039;42.632;23.408;2022-10-31T13:31:22;95446.22;;;21.31;43.71
19761;BME280;10039;42.632;23.408;2022-10-31T13:33:56;95473.28;;;21.40;43.88
19761;BME280;10039;42.632;23.408;2022-10-31T13:41:50;95467.66;;;21.44;43.75
19761;BME280;10039;42.632;23.408;2022-10-31T13:44:26;95462.78;;;21.19;44.70
19761;BME280;10039;42.632;23.408;2022-10-31T13:46:56;95470.09;;;21.27;44.62
19761;BME280;10039;42.632;23.408;2022-10-31T13:51:51;95470.66;;;21.31;44.77
19761;BME280;10039;42.632;23.408;2022-10-31T13:54:32;95471.44;;;21.32;44.46
19761;BME280;10039;42.632;23.408;2022-10-31T13:56:57;95462.59;;;21.22;44.54
19761;BME280;10039;42.632;23.408;2022-10-31T13:59:25;95467.00;;;21.34;44.64
19761;BME280;10039;42.632;23.408;2022-10-31T14:01:58;95453.72;;;21.22;44.68
19761;BME280;10039;42.632;23.408;2022-10-31T14:04:38;95474.22;;;21.37;45.10
19761;BME280;10039;42.632;23.408;2022-10-31T14:07:30;95468.03;;;21.37;44.43
19761;BME280;10039;42.632;23.408;2022-10-31T14:12:41;95471.50;;;21.37;44.89
19761;BME280;10039;42.632;23.408;2022-10-31T14:17:50;95480.69;;;21.40;44.60
19761;BME280;10039;42.632;23.408;2022-10-31T14:22:45;95481.53;;;21.46;44.67
19761;BME280;10039;42.632;23.408;2022-10-31T14:25:43;95464.28;;;21.34;44.92
19761;BME280;10039;42.632;23.408;2022-10-31T14:28:32;95483.97;;;21.44;43.91
19761;BME280;10039;42.632;23.408;2022-10-31T14:30:59;95473.22;;;21.35;44.00
19761;BME280;10039;42.632;23.408;2022-10-31T14:33:27;95476.94;;;21.37;44.09
19761;BME280;10039;42.632;23.408;2022-10-31T14:35:56;95473.47;;;21.37;44.60
19761;BME280;10039;42.632;23.408;2022-10-31T14:50:15;95472.06;;;21.27;44.59
19761;BME280;10039;42.632;23.408;2022-10-31T14:52:48;95466.63;;;21.12;44.59
19761;BME280;10039;42.632;23.408;2022-10-31T14:55:16;95458.47;;;21.12;44.54
19761;BME280;10039;42.632;23.408;2022-10-31T14:57:51;95464.84;;;21.09;44.13
19761;BME280;10039;42.632;23.408;2022-10-31T15:00:20;95467.34;;;20.98;43.84
19761;BME280;10039;42.632;23.408;2022-10-31T15:03:15;95472.97;;;21.09;44.11
19761;BME280;10039;42.632;23.408;2022-10-31T15:05:54;95454.69;;;20.95;43.93
19761;BME280;10039;42.632;23.408;2022-10-31T15:08:44;95481.56;;;21.08;44.15
19761;BME280;10039;42.632;23.408;2022-10-31T15:11:20;95465.19;;;21.02;43.82
19761;BME280;10039;42.632;23.408;2022-10-31T15:16:21;95468.16;;;20.90;44.09
19761;BME280;10039;42.632;23.408;2022-10-31T15:18:56;95470.81;;;20.75;44.00
19761;BME280;10039;42.632;23.408;2022-10-31T15:21:24;95478.03;;;20.78;44.14
19761;BME280;10039;42.632;23.408;2022-10-31T15:23:55;95466.78;;;20.71;43.85
19761;BME280;10039;42.632;23.408;2022-10-31T15:26:27;95493.34;;;20.90;44.24
19761;BME280;10039;42.632;23.408;2022-10-31T15:29:04;95497.03;;;20.78;45.43
19761;BME280;10039;42.632;23.408;2022-10-31T15:31:30;95475.00;;;20.62;45.71
19761;BME280;10039;42.632;23.408;2022-10-31T15:34:02;95484.50;;;20.57;45.86
19761;BME280;10039;42.632;23.408;2022-10-31T15:36:28;95498.34;;;20.59;46.11